sensor_id;sensor_type;location;lat;lon;timestamp;P1;durP1;ratioP1;P2;durP2;ratioP2
73266;SDS011;61495;53.400;7.608;2023-02-11T00:01:21;17.90;;;6.97;;
73266;SDS011;61495;53.400;7.608;2023-02-11T00:03:49;15.40;;;6.20;;
73266;SDS011;61495;53.400;7.608;2023-02-11T00:06:15;15.70;;;7.18;;
73266;SDS011;61495;53.400;7.608;2023-02-11T00:08:40;17.73;;;6.05;;
73266;SDS011;61495;53.400;7.608;2023-02-11T00:11:06;17.33;;;7.30;;
73266;SDS011;61495;53.400;7.608;2023-02-11T00:13:32;19.92;;;7.00;;
73266;SDS011;61495;53.400;7.608;2023-02-11T00:15:57;16.98;;;6.45;;
73266;SDS011;61495;53.400;7.608;2023-02-11T00:18:23;17.83;;;6.88;;
73266;SDS011;61495;53.400;7.608;2023-02-11T00:20:48;17.95;;;5.43;;
73266;SDS011;61495;53.400;7.608;2023-02-11T00:23:13;21.70;;;6.63;;
73266;SDS011;61495;53.400;7.608;2023-02-11T00:25:39;15.68;;;6.32;;
73266;SDS011;61495;53.400;7.608;2023-02-11T00:28:06;15.15;;;5.90;;
73266;SDS011;61495;53.400;7.608;2023-02-11T00:30:32;16.25;;;6.07;;
73266;SDS011;61495;53.400;7.608;2023-02-11T00:32:57;19.23;;;6.57;;
73266;SDS011;61495;53.400;7.608;2023-02-11T00:35:23;17.80;;;6.70;;
73266;SDS011;61495;53.400;7.608;2023-02-11T00:37:48;12.48;;;5.03;;
73266;SDS011;61495;53.400;7.608;2023-02-11T00:40:13;16.60;;;6.07;;
73266;SDS011;61495;53.400;7.608;2023-02-11T00:42:40;15.02;;;5.57;;
73266;SDS011;61495;53.400;7.608;2023-02-11T00:45:06;16.80;;;6.20;;
73266;SDS011;61495;53.400;7.608;2023-02-11T00:47:33;14.23;;;5.72;;
73266;SDS011;61495;53.400;7.608;2023-02-11T00:49:59;19.13;;;5.82;;
73266;SDS011;61495;53.400;7.608;2023-02-11T00:52:25;18.38;;;6.22;;
73266;SDS011;61495;53.400;7.608;2023-02-11T00:54:51;18.52;;;6.45;;
73266;SDS011;61495;53.400;7.608;2023-02-11T00:57:16;20.55;;;6.00;;
73266;SDS011;61495;53.400;7.608;2023-02-11T00:59:42;16.52;;;6.47;;
73266;SDS011;61495;53.400;7.608;2023-02-11T01:02:07;17.38;;;6.20;;
73266;SDS011;61495;53.400;7.608;2023-02-11T01:04:32;16.98;;;6.47;;
73266;SDS011;61495;53.400;7.608;2023-02-11T01:06:58;20.58;;;6.60;;
73266;SDS011;61495;53.400;7.608;2023-02-11T01:09:23;17.73;;;6.78;;
73266;SDS011;61495;53.400;7.608;2023-02-11T01:11:48;18.40;;;5.67;;
73266;SDS011;61495;53.400;7.608;2023-02-11T01:14:14;15.82;;;5.68;;
73266;SDS011;61495;53.400;7.608;2023-02-11T01:16:39;20.73;;;5.65;;
73266;SDS011;61495;53.400;7.608;2023-02-11T01:19:05;14.85;;;5.55;;
73266;SDS011;61495;53.400;7.608;2023-02-11T01:21:30;19.02;;;6.22;;
73266;SDS011;61495;53.400;7.608;2023-02-11T01:23:55;16.40;;;5.88;;
73266;SDS011;61495;53.400;7.608;2023-02-11T01:26:21;14.13;;;6.57;;
73266;SDS011;61495;53.400;7.608;2023-02-11T01:28:46;19.52;;;6.07;;
73266;SDS011;61495;53.400;7.608;2023-02-11T01:31:12;18.98;;;6.45;;
73266;SDS011;61495;53.400;7.608;2023-02-11T01:33:38;17.08;;;5.43;;
73266;SDS011;61495;53.400;7.608;2023-02-11T01:36:03;17.05;;;6.50;;
73266;SDS011;61495;53.400;7.608;2023-02-11T01:38:30;15.80;;;6.28;;
73266;SDS011;61495;53.400;7.608;2023-02-11T01:40:58;12.27;;;5.10;;
73266;SDS011;61495;53.400;7.608;2023-02-11T01:43:25;20.83;;;5.93;;
73266;SDS011;61495;53.400;7.608;2023-02-11T01:45:55;15.90;;;5.63;;
73266;SDS011;61495;53.400;7.608;2023-02-11T01:48:27;14.70;;;5.32;;
73266;SDS011;61495;53.400;7.608;2023-02-11T01:50:59;17.05;;;6.03;;
73266;SDS011;61495;53.400;7.608;2023-02-11T01:53:29;15.00;;;5.82;;
73266;SDS011;61495;53.400;7.608;2023-02-11T01:56:14;17.88;;;5.63;;
73266;SDS011;61495;53.400;7.608;2023-02-11T01:59:05;15.10;;;5.85;;
73266;SDS011;61495;53.400;7.608;2023-02-11T02:01:35;13.15;;;5.15;;
73266;SDS011;61495;53.400;7.608;2023-02-11T02:04:05;17.73;;;6.32;;
73266;SDS011;61495;53.400;7.608;2023-02-11T02:06:42;13.38;;;6.18;;
73266;SDS011;61495;53.400;7.608;2023-02-11T02:09:20;15.35;;;5.60;;
73266;SDS011;61495;53.400;7.608;2023-02-11T02:11:52;13.25;;;5.68;;
73266;SDS011;61495;53.400;7.608;2023-02-11T02:14:18;14.18;;;5.22;;
73266;SDS011;61495;53.400;7.608;2023-02-11T02:16:43;19.80;;;7.38;;
73266;SDS011;61495;53.400;7.608;2023-02-11T02:19:18;15.43;;;6.28;;
73266;SDS011;61495;53.400;7.608;2023-02-11T02:32:50;14.50;;;6.40;;
73266;SDS011;61495;53.400;7.608;2023-02-11T02:38:15;13.77;;;6.05;;
73266;SDS011;61495;53.400;7.608;2023-02-11T02:40:58;18.13;;;5.90;;
73266;SDS011;61495;53.400;7.608;2023-02-11T02:43:30;15.00;;;6.30;;
73266;SDS011;61495;53.400;7.608;2023-02-11T02:48:44;14.32;;;6.72;;
73266;SDS011;61495;53.400;7.608;2023-02-11T02:56:40;19.63;;;6.35;;
73266;SDS011;61495;53.400;7.608;2023-02-11T02:59:15;21.85;;;6.85;;
73266;SDS011;61495;53.400;7.608;2023-02-11T03:07:21;17.33;;;6.97;;
73266;SDS011;61495;53.400;7.608;2023-02-11T03:12:32;18.63;;;7.45;;
73266;SDS011;61495;53.400;7.608;2023-02-11T03:14:59;17.52;;;7.32;;
73266;SDS011;61495;53.400;7.608;2023-02-11T03:17:27;19.58;;;8.30;;
73266;SDS011;61495;53.400;7.608;2023-02-11T03:19:54;15.93;;;7.85;;
73266;SDS011;61495;53.400;7.608;2023-02-11T03:25:11;18.23;;;6.75;;
73266;SDS011;61495;53.400;7.608;2023-02-11T03:27:42;20.75;;;8.02;;
73266;SDS011;61495;53.400;7.608;2023-02-11T03:32:50;16.65;;;6.70;;
73266;SDS011;61495;53.400;7.608;2023-02-11T03:35:34;17.08;;;7.03;;
73266;SDS011;61495;53.400;7.608;2023-02-11T03:38:17;21.02;;;7.18;;
73266;SDS011;61495;53.400;7.608;2023-02-11T03:40:45;21.08;;;9.20;;
73266;SDS011;61495;53.400;7.608;2023-02-11T03:43:18;21.75;;;8.13;;
73266;SDS011;61495;53.400;7.608;2023-02-11T03:45:47;24.65;;;9.10;;
73266;SDS011;61495;53.400;7.608;2023-02-11T03:48:17;22.00;;;7.85;;
73266;SDS011;61495;53.400;7.608;2023-02-11T03:50:55;21.05;;;8.05;;
73266;SDS011;61495;53.400;7.608;2023-02-11T03:53:23;19.50;;;8.65;;
73266;SDS011;61495;53.400;7.608;2023-02-11T03:55:49;20.75;;;9.25;;
73266;SDS011;61495;53.400;7.608;2023-02-11T03:58:17;19.25;;;7.07;;
73266;SDS011;61495;53.400;7.608;2023-02-11T04:00:43;27.52;;;8.93;;
73266;SDS011;61495;53.400;7.608;2023-02-11T04:03:10;22.50;;;8.50;;
73266;SDS011;61495;53.400;7.608;2023-02-11T04:05:36;22.02;;;8.07;;
73266;SDS011;61495;53.400;7.608;2023-02-11T04:08:02;19.73;;;8.50;;
73266;SDS011;61495;53.400;7.608;2023-02-11T04:10:28;20.73;;;7.45;;
73266;SDS011;61495;53.400;7.608;2023-02-11T04:12:54;16.25;;;7.60;;
73266;SDS011;61495;53.400;7.608;2023-02-11T04:15:19;17.27;;;8.02;;
73266;SDS011;61495;53.400;7.608;2023-02-11T04:17:45;14.05;;;6.93;;
73266;SDS011;61495;53.400;7.608;2023-02-11T04:20:10;18.38;;;7.55;;
73266;SDS011;61495;53.400;7.608;2023-02-11T04:22:36;21.35;;;8.50;;
73266;SDS011;61495;53.400;7.608;2023-02-11T04:25:02;21.73;;;8.05;;
73266;SDS011;61495;53.400;7.608;2023-02-11T04:27:28;21.27;;;8.80;;
73266;SDS011;61495;53.400;7.608;2023-02-11T04:29:54;17.27;;;7.47;;
73266;SDS011;61495;53.400;7.608;2023-02-11T04:32:19;20.40;;;7.13;;
73266;SDS011;61495;53.400;7.608;2023-02-11T04:34:44;16.90;;;7.30;;
73266;SDS011;61495;53.400;7.608;2023-02-11T04:37:10;19.95;;;8.35;;
73266;SDS011;61495;53.400;7.608;2023-02-11T04:39:35;20.55;;;8.60;;
73266;SDS011;61495;53.400;7.608;2023-02-11T04:42:01;23.83;;;8.95;;
73266;SDS011;61495;53.400;7.608;2023-02-11T04:44:26;17.63;;;8.15;;
73266;SDS011;61495;53.400;7.608;2023-02-11T04:46:52;17.27;;;6.95;;
73266;SDS011;61495;53.400;7.608;2023-02-11T04:49:17;20.80;;;8.00;;
73266;SDS011;61495;53.400;7.608;2023-02-11T04:51:43;16.95;;;8.25;;
73266;SDS011;61495;53.400;7.608;2023-02-11T04:54:11;22.42;;;7.97;;
73266;SDS011;61495;53.400;7.608;2023-02-11T04:56:37;21.02;;;8.73;;
73266;SDS011;61495;53.400;7.608;2023-02-11T04:59:03;19.65;;;9.27;;
73266;SDS011;61495;53.400;7.608;2023-02-11T05:01:29;19.67;;;8.80;;
73266;SDS011;61495;53.400;7.608;2023-02-11T05:03:55;18.60;;;9.10;;
73266;SDS011;61495;53.400;7.608;2023-02-11T05:06:20;20.13;;;8.60;;
73266;SDS011;61495;53.400;7.608;2023-02-11T05:08:46;20.38;;;8.35;;
73266;SDS011;61495;53.400;7.608;2023-02-11T05:11:19;22.08;;;9.55;;
73266;SDS011;61495;53.400;7.608;2023-02-11T05:13:46;23.90;;;8.00;;
73266;SDS011;61495;53.400;7.608;2023-02-11T05:16:12;21.08;;;8.40;;
73266;SDS011;61495;53.400;7.608;2023-02-11T05:18:38;19.42;;;8.63;;
73266;SDS011;61495;53.400;7.608;2023-02-11T05:21:06;17.35;;;8.02;;
73266;SDS011;61495;53.400;7.608;2023-02-11T05:23:32;23.98;;;9.50;;
73266;SDS011;61495;53.400;7.608;2023-02-11T05:25:58;18.38;;;9.00;;
73266;SDS011;61495;53.400;7.608;2023-02-11T05:28:24;19.25;;;8.45;;
73266;SDS011;61495;53.400;7.608;2023-02-11T05:30:49;20.58;;;9.35;;
73266;SDS011;61495;53.400;7.608;2023-02-11T05:33:15;21.17;;;7.93;;
73266;SDS011;61495;53.400;7.608;2023-02-11T05:35:40;20.80;;;9.50;;
73266;SDS011;61495;53.400;7.608;2023-02-11T05:38:05;20.40;;;8.45;;
73266;SDS011;61495;53.400;7.608;2023-02-11T05:40:31;28.13;;;8.50;;
73266;SDS011;61495;53.400;7.608;2023-02-11T05:42:56;20.75;;;9.63;;
73266;SDS011;61495;53.400;7.608;2023-02-11T05:45:21;17.90;;;8.40;;
73266;SDS011;61495;53.400;7.608;2023-02-11T05:47:47;17.27;;;8.10;;
73266;SDS011;61495;53.400;7.608;2023-02-11T05:50:12;21.15;;;8.52;;
73266;SDS011;61495;53.400;7.608;2023-02-11T05:52:38;20.67;;;8.70;;
73266;SDS011;61495;53.400;7.608;2023-02-11T05:55:03;21.85;;;9.35;;
73266;SDS011;61495;53.400;7.608;2023-02-11T05:57:29;25.15;;;10.25;;
73266;SDS011;61495;53.400;7.608;2023-02-11T05:59:54;18.83;;;7.90;;
73266;SDS011;61495;53.400;7.608;2023-02-11T06:02:20;25.00;;;10.17;;
73266;SDS011;61495;53.400;7.608;2023-02-11T06:04:45;19.77;;;9.02;;
73266;SDS011;61495;53.400;7.608;2023-02-11T06:07:10;19.15;;;8.23;;
73266;SDS011;61495;53.400;7.608;2023-02-11T06:09:36;21.30;;;9.25;;
73266;SDS011;61495;53.400;7.608;2023-02-11T06:12:01;24.30;;;8.90;;
73266;SDS011;61495;53.400;7.608;2023-02-11T06:14:27;19.80;;;8.57;;
73266;SDS011;61495;53.400;7.608;2023-02-11T06:16:52;21.80;;;8.77;;
73266;SDS011;61495;53.400;7.608;2023-02-11T06:19:18;21.95;;;9.40;;
73266;SDS011;61495;53.400;7.608;2023-02-11T06:21:43;22.65;;;10.02;;
73266;SDS011;61495;53.400;7.608;2023-02-11T06:24:08;21.35;;;8.95;;
73266;SDS011;61495;53.400;7.608;2023-02-11T06:26:34;22.77;;;9.43;;
73266;SDS011;61495;53.400;7.608;2023-02-11T06:28:59;22.65;;;10.13;;
73266;SDS011;61495;53.400;7.608;2023-02-11T06:31:25;21.38;;;9.25;;
73266;SDS011;61495;53.400;7.608;2023-02-11T06:33:50;19.65;;;9.55;;
73266;SDS011;61495;53.400;7.608;2023-02-11T06:36:19;20.83;;;8.98;;
73266;SDS011;61495;53.400;7.608;2023-02-11T06:38:45;19.95;;;9.05;;
73266;SDS011;61495;53.400;7.608;2023-02-11T06:41:12;27.48;;;9.57;;
73266;SDS011;61495;53.400;7.608;2023-02-11T06:43:39;24.08;;;9.35;;
73266;SDS011;61495;53.400;7.608;2023-02-11T06:46:05;21.73;;;9.60;;
73266;SDS011;61495;53.400;7.608;2023-02-11T06:48:31;21.55;;;10.27;;
73266;SDS011;61495;53.400;7.608;2023-02-11T06:51:04;23.35;;;9.50;;
73266;SDS011;61495;53.400;7.608;2023-02-11T06:53:35;16.98;;;9.85;;
73266;SDS011;61495;53.400;7.608;2023-02-11T06:56:06;22.00;;;9.63;;
73266;SDS011;61495;53.400;7.608;2023-02-11T06:58:36;18.85;;;8.95;;
73266;SDS011;61495;53.400;7.608;2023-02-11T07:01:08;23.58;;;9.25;;
73266;SDS011;61495;53.400;7.608;2023-02-11T07:03:36;23.38;;;10.10;;
73266;SDS011;61495;53.400;7.608;2023-02-11T07:06:04;17.25;;;9.18;;
73266;SDS011;61495;53.400;7.608;2023-02-11T07:08:34;20.83;;;8.30;;
73266;SDS011;61495;53.400;7.608;2023-02-11T07:11:01;20.17;;;9.13;;
73266;SDS011;61495;53.400;7.608;2023-02-11T07:13:33;20.50;;;9.73;;
73266;SDS011;61495;53.400;7.608;2023-02-11T07:15:58;21.73;;;9.85;;
73266;SDS011;61495;53.400;7.608;2023-02-11T07:18:29;17.23;;;7.90;;
73266;SDS011;61495;53.400;7.608;2023-02-11T07:20:54;20.23;;;8.52;;
73266;SDS011;61495;53.400;7.608;2023-02-11T07:23:19;18.38;;;9.40;;
73266;SDS011;61495;53.400;7.608;2023-02-11T07:25:45;25.02;;;9.10;;
73266;SDS011;61495;53.400;7.608;2023-02-11T07:28:10;20.20;;;8.07;;
73266;SDS011;61495;53.400;7.608;2023-02-11T07:30:35;17.02;;;8.48;;
73266;SDS011;61495;53.400;7.608;2023-02-11T07:33:01;18.85;;;8.40;;
73266;SDS011;61495;53.400;7.608;2023-02-11T07:35:26;15.88;;;8.00;;
73266;SDS011;61495;53.400;7.608;2023-02-11T07:37:51;17.80;;;7.43;;
73266;SDS011;61495;53.400;7.608;2023-02-11T07:40:17;21.20;;;8.88;;
73266;SDS011;61495;53.400;7.608;2023-02-11T07:42:42;22.55;;;8.25;;
73266;SDS011;61495;53.400;7.608;2023-02-11T07:45:08;21.00;;;7.37;;
73266;SDS011;61495;53.400;7.608;2023-02-11T07:47:33;17.58;;;8.45;;
73266;SDS011;61495;53.400;7.608;2023-02-11T07:49:59;19.17;;;8.45;;
73266;SDS011;61495;53.400;7.608;2023-02-11T07:52:27;17.15;;;7.75;;
73266;SDS011;61495;53.400;7.608;2023-02-11T07:54:53;18.55;;;6.90;;
73266;SDS011;61495;53.400;7.608;2023-02-11T07:57:19;15.68;;;7.20;;
73266;SDS011;61495;53.400;7.608;2023-02-11T07:59:44;16.43;;;7.90;;
73266;SDS011;61495;53.400;7.608;2023-02-11T08:02:10;19.60;;;7.23;;
73266;SDS011;61495;53.400;7.608;2023-02-11T08:04:35;15.45;;;6.85;;
73266;SDS011;61495;53.400;7.608;2023-02-11T08:07:00;16.80;;;7.47;;
73266;SDS011;61495;53.400;7.608;2023-02-11T08:09:26;15.25;;;6.50;;
73266;SDS011;61495;53.400;7.608;2023-02-11T08:11:51;21.85;;;6.40;;
73266;SDS011;61495;53.400;7.608;2023-02-11T08:14:17;17.00;;;5.97;;
73266;SDS011;61495;53.400;7.608;2023-02-11T08:16:42;17.15;;;5.55;;
73266;SDS011;61495;53.400;7.608;2023-02-11T08:19:11;15.93;;;6.57;;
73266;SDS011;61495;53.400;7.608;2023-02-11T08:21:38;11.82;;;5.38;;
73266;SDS011;61495;53.400;7.608;2023-02-11T08:24:05;17.27;;;6.95;;
73266;SDS011;61495;53.400;7.608;2023-02-11T08:26:31;15.25;;;5.80;;
73266;SDS011;61495;53.400;7.608;2023-02-11T08:28:58;14.98;;;6.20;;
73266;SDS011;61495;53.400;7.608;2023-02-11T08:31:35;16.17;;;5.80;;
73266;SDS011;61495;53.400;7.608;2023-02-11T08:34:02;14.95;;;5.57;;
73266;SDS011;61495;53.400;7.608;2023-02-11T08:36:28;15.57;;;6.25;;
73266;SDS011;61495;53.400;7.608;2023-02-11T08:38:59;12.40;;;5.50;;
73266;SDS011;61495;53.400;7.608;2023-02-11T08:41:29;13.85;;;5.95;;
73266;SDS011;61495;53.400;7.608;2023-02-11T08:43:58;12.02;;;5.40;;
73266;SDS011;61495;53.400;7.608;2023-02-11T08:46:23;19.02;;;6.57;;
73266;SDS011;61495;53.400;7.608;2023-02-11T08:48:49;17.98;;;6.60;;
73266;SDS011;61495;53.400;7.608;2023-02-11T08:51:16;15.30;;;5.93;;
73266;SDS011;61495;53.400;7.608;2023-02-11T08:53:44;17.70;;;5.38;;
73266;SDS011;61495;53.400;7.608;2023-02-11T08:56:10;14.48;;;5.72;;
73266;SDS011;61495;53.400;7.608;2023-02-11T08:58:37;17.67;;;5.75;;
73266;SDS011;61495;53.400;7.608;2023-02-11T09:01:13;15.40;;;5.38;;
73266;SDS011;61495;53.400;7.608;2023-02-11T09:03:43;15.57;;;5.25;;
73266;SDS011;61495;53.400;7.608;2023-02-11T09:06:09;12.00;;;5.07;;
73266;SDS011;61495;53.400;7.608;2023-02-11T09:08:36;14.55;;;5.43;;
73266;SDS011;61495;53.400;7.608;2023-02-11T09:11:03;14.68;;;5.78;;
73266;SDS011;61495;53.400;7.608;2023-02-11T09:13:29;16.67;;;4.90;;
73266;SDS011;61495;53.400;7.608;2023-02-11T09:15:57;14.13;;;5.20;;
73266;SDS011;61495;53.400;7.608;2023-02-11T09:18:23;18.90;;;5.18;;
73266;SDS011;61495;53.400;7.608;2023-02-11T09:20:49;14.02;;;5.45;;
73266;SDS011;61495;53.400;7.608;2023-02-11T09:23:14;13.60;;;4.68;;
73266;SDS011;61495;53.400;7.608;2023-02-11T09:25:40;14.95;;;5.05;;
73266;SDS011;61495;53.400;7.608;2023-02-11T09:28:06;12.70;;;4.10;;
73266;SDS011;61495;53.400;7.608;2023-02-11T09:30:32;12.60;;;5.22;;
73266;SDS011;61495;53.400;7.608;2023-02-11T09:32:57;14.07;;;5.30;;
73266;SDS011;61495;53.400;7.608;2023-02-11T09:35:22;20.02;;;6.35;;
73266;SDS011;61495;53.400;7.608;2023-02-11T09:37:48;17.08;;;4.95;;
73266;SDS011;61495;53.400;7.608;2023-02-11T09:40:14;12.95;;;4.40;;
73266;SDS011;61495;53.400;7.608;2023-02-11T09:45:30;14.98;;;4.43;;
73266;SDS011;61495;53.400;7.608;2023-02-11T09:48:00;14.23;;;3.67;;
73266;SDS011;61495;53.400;7.608;2023-02-11T09:50:31;13.73;;;4.63;;
73266;SDS011;61495;53.400;7.608;2023-02-11T09:53:09;15.35;;;4.53;;
73266;SDS011;61495;53.400;7.608;2023-02-11T09:55:41;17.00;;;4.45;;
73266;SDS011;61495;53.400;7.608;2023-02-11T09:58:11;22.92;;;5.25;;
73266;SDS011;61495;53.400;7.608;2023-02-11T10:00:50;16.83;;;5.00;;
73266;SDS011;61495;53.400;7.608;2023-02-11T10:06:25;15.05;;;4.70;;
73266;SDS011;61495;53.400;7.608;2023-02-11T10:23:21;15.43;;;4.30;;
73266;SDS011;61495;53.400;7.608;2023-02-11T10:25:53;13.32;;;4.53;;
73266;SDS011;61495;53.400;7.608;2023-02-11T10:28:21;17.33;;;5.85;;
73266;SDS011;61495;53.400;7.608;2023-02-11T10:31:00;15.77;;;4.03;;
73266;SDS011;61495;53.400;7.608;2023-02-11T10:33:30;16.77;;;5.00;;
73266;SDS011;61495;53.400;7.608;2023-02-11T10:36:00;17.67;;;5.57;;
73266;SDS011;61495;53.400;7.608;2023-02-11T10:38:26;13.25;;;3.90;;
73266;SDS011;61495;53.400;7.608;2023-02-11T10:40:52;10.93;;;3.40;;
73266;SDS011;61495;53.400;7.608;2023-02-11T10:43:18;16.15;;;5.10;;
73266;SDS011;61495;53.400;7.608;2023-02-11T10:45:52;12.75;;;3.83;;
73266;SDS011;61495;53.400;7.608;2023-02-11T10:48:37;10.82;;;4.18;;
73266;SDS011;61495;53.400;7.608;2023-02-11T10:53:42;13.88;;;4.18;;
73266;SDS011;61495;53.400;7.608;2023-02-11T10:56:13;15.73;;;4.00;;
73266;SDS011;61495;53.400;7.608;2023-02-11T10:58:59;14.60;;;5.20;;
73266;SDS011;61495;53.400;7.608;2023-02-11T11:01:38;17.83;;;3.97;;
73266;SDS011;61495;53.400;7.608;2023-02-11T11:17:35;14.27;;;4.25;;
73266;SDS011;61495;53.400;7.608;2023-02-11T11:22:45;14.30;;;3.38;;
73266;SDS011;61495;53.400;7.608;2023-02-11T11:25:19;17.27;;;5.03;;
73266;SDS011;61495;53.400;7.608;2023-02-11T11:27:50;10.57;;;4.15;;
73266;SDS011;61495;53.400;7.608;2023-02-11T11:30:18;15.07;;;3.97;;
73266;SDS011;61495;53.400;7.608;2023-02-11T11:32:44;15.02;;;3.60;;
73266;SDS011;61495;53.400;7.608;2023-02-11T11:35:23;12.75;;;3.60;;
73266;SDS011;61495;53.400;7.608;2023-02-11T11:38:00;17.50;;;4.60;;
73266;SDS011;61495;53.400;7.608;2023-02-11T11:40:32;15.10;;;3.80;;
73266;SDS011;61495;53.400;7.608;2023-02-11T11:45:27;10.95;;;3.25;;
73266;SDS011;61495;53.400;7.608;2023-02-11T11:47:55;11.65;;;3.78;;
73266;SDS011;61495;53.400;7.608;2023-02-11T11:50:25;10.00;;;4.82;;
73266;SDS011;61495;53.400;7.608;2023-02-11T11:55:39;14.02;;;3.70;;
73266;SDS011;61495;53.400;7.608;2023-02-11T11:58:13;11.23;;;3.40;;
73266;SDS011;61495;53.400;7.608;2023-02-11T12:03:23;17.75;;;3.55;;
73266;SDS011;61495;53.400;7.608;2023-02-11T12:05:59;16.42;;;4.10;;
73266;SDS011;61495;53.400;7.608;2023-02-11T12:14:28;15.05;;;4.80;;
73266;SDS011;61495;53.400;7.608;2023-02-11T12:17:21;9.90;;;3.97;;
73266;SDS011;61495;53.400;7.608;2023-02-11T12:33:13;14.73;;;4.03;;
73266;SDS011;61495;53.400;7.608;2023-02-11T12:44:13;18.58;;;4.15;;
73266;SDS011;61495;53.400;7.608;2023-02-11T12:46:52;17.23;;;4.60;;
73266;SDS011;61495;53.400;7.608;2023-02-11T12:49:36;16.45;;;3.58;;
73266;SDS011;61495;53.400;7.608;2023-02-11T12:55:00;13.32;;;2.95;;
73266;SDS011;61495;53.400;7.608;2023-02-11T12:57:32;10.45;;;2.72;;
73266;SDS011;61495;53.400;7.608;2023-02-11T13:02:53;15.05;;;2.83;;
73266;SDS011;61495;53.400;7.608;2023-02-11T13:05:37;13.32;;;2.97;;
73266;SDS011;61495;53.400;7.608;2023-02-11T13:16:21;11.57;;;2.58;;
73266;SDS011;61495;53.400;7.608;2023-02-11T13:19:12;13.02;;;3.35;;
73266;SDS011;61495;53.400;7.608;2023-02-11T13:21:54;14.82;;;4.70;;
73266;SDS011;61495;53.400;7.608;2023-02-11T13:24:43;12.05;;;2.88;;
73266;SDS011;61495;53.400;7.608;2023-02-11T13:27:31;14.25;;;3.45;;
73266;SDS011;61495;53.400;7.608;2023-02-11T13:35:32;12.48;;;3.13;;
73266;SDS011;61495;53.400;7.608;2023-02-11T13:38:00;14.68;;;3.75;;
73266;SDS011;61495;53.400;7.608;2023-02-11T13:40:29;11.85;;;4.25;;
73266;SDS011;61495;53.400;7.608;2023-02-11T13:43:02;13.48;;;2.78;;
73266;SDS011;61495;53.400;7.608;2023-02-11T13:45:37;18.52;;;3.55;;
73266;SDS011;61495;53.400;7.608;2023-02-11T13:50:49;17.08;;;2.88;;
73266;SDS011;61495;53.400;7.608;2023-02-11T13:53:17;11.00;;;3.30;;
73266;SDS011;61495;53.400;7.608;2023-02-11T13:55:44;13.45;;;2.60;;
73266;SDS011;61495;53.400;7.608;2023-02-11T14:26:59;15.20;;;3.13;;
73266;SDS011;61495;53.400;7.608;2023-02-11T14:40:57;15.15;;;3.55;;
73266;SDS011;61495;53.400;7.608;2023-02-11T14:43:38;17.02;;;3.38;;
73266;SDS011;61495;53.400;7.608;2023-02-11T14:46:07;13.57;;;3.22;;
73266;SDS011;61495;53.400;7.608;2023-02-11T14:48:33;10.38;;;3.53;;
73266;SDS011;61495;53.400;7.608;2023-02-11T14:51:02;13.95;;;3.80;;
73266;SDS011;61495;53.400;7.608;2023-02-11T14:53:31;9.77;;;2.50;;
73266;SDS011;61495;53.400;7.608;2023-02-11T14:55:58;8.27;;;2.63;;
73266;SDS011;61495;53.400;7.608;2023-02-11T14:58:25;12.68;;;2.70;;
73266;SDS011;61495;53.400;7.608;2023-02-11T15:03:27;8.02;;;2.45;;
73266;SDS011;61495;53.400;7.608;2023-02-11T15:11:51;7.50;;;2.45;;
73266;SDS011;61495;53.400;7.608;2023-02-11T15:16:55;9.43;;;2.83;;
73266;SDS011;61495;53.400;7.608;2023-02-11T15:19:28;10.65;;;2.45;;
73266;SDS011;61495;53.400;7.608;2023-02-11T15:22:07;9.65;;;2.05;;
73266;SDS011;61495;53.400;7.608;2023-02-11T15:24:56;14.88;;;3.17;;
73266;SDS011;61495;53.400;7.608;2023-02-11T15:27:38;10.93;;;3.45;;
73266;SDS011;61495;53.400;7.608;2023-02-11T15:30:28;14.10;;;2.50;;
73266;SDS011;61495;53.400;7.608;2023-02-11T15:32:57;11.85;;;3.13;;
73266;SDS011;61495;53.400;7.608;2023-02-11T15:35:31;10.00;;;3.60;;
73266;SDS011;61495;53.400;7.608;2023-02-11T15:37:59;12.82;;;3.38;;
73266;SDS011;61495;53.400;7.608;2023-02-11T15:40:26;16.45;;;3.33;;
73266;SDS011;61495;53.400;7.608;2023-02-11T15:42:59;10.98;;;3.03;;
73266;SDS011;61495;53.400;7.608;2023-02-11T15:45:37;11.70;;;2.90;;
73266;SDS011;61495;53.400;7.608;2023-02-11T15:48:11;9.55;;;2.45;;
73266;SDS011;61495;53.400;7.608;2023-02-11T15:50:37;9.27;;;2.85;;
73266;SDS011;61495;53.400;7.608;2023-02-11T15:53:22;14.23;;;2.13;;
73266;SDS011;61495;53.400;7.608;2023-02-11T15:56:07;8.50;;;1.92;;
73266;SDS011;61495;53.400;7.608;2023-02-11T15:58:38;10.85;;;3.15;;
73266;SDS011;61495;53.400;7.608;2023-02-11T16:01:05;13.45;;;2.92;;
73266;SDS011;61495;53.400;7.608;2023-02-11T16:03:32;14.95;;;2.78;;
73266;SDS011;61495;53.400;7.608;2023-02-11T16:06:14;10.55;;;2.25;;
73266;SDS011;61495;53.400;7.608;2023-02-11T16:11:31;9.25;;;2.53;;
73266;SDS011;61495;53.400;7.608;2023-02-11T16:14:19;12.88;;;3.08;;
73266;SDS011;61495;53.400;7.608;2023-02-11T16:16:48;12.98;;;2.65;;
73266;SDS011;61495;53.400;7.608;2023-02-11T16:19:17;18.48;;;3.33;;
73266;SDS011;61495;53.400;7.608;2023-02-11T16:21:44;11.15;;;2.78;;
73266;SDS011;61495;53.400;7.608;2023-02-11T16:24:17;13.77;;;2.55;;
73266;SDS011;61495;53.400;7.608;2023-02-11T16:26:56;18.15;;;2.67;;
73266;SDS011;61495;53.400;7.608;2023-02-11T16:29:25;8.73;;;2.78;;
73266;SDS011;61495;53.400;7.608;2023-02-11T16:31:53;6.50;;;2.05;;
73266;SDS011;61495;53.400;7.608;2023-02-11T16:34:29;8.45;;;3.25;;
73266;SDS011;61495;53.400;7.608;2023-02-11T16:36:54;11.45;;;3.47;;
73266;SDS011;61495;53.400;7.608;2023-02-11T16:39:19;9.23;;;2.92;;
73266;SDS011;61495;53.400;7.608;2023-02-11T16:41:46;11.70;;;3.05;;
73266;SDS011;61495;53.400;7.608;2023-02-11T16:44:17;8.43;;;2.25;;
73266;SDS011;61495;53.400;7.608;2023-02-11T16:46:43;10.40;;;2.45;;
73266;SDS011;61495;53.400;7.608;2023-02-11T16:49:22;10.38;;;2.58;;
73266;SDS011;61495;53.400;7.608;2023-02-11T16:51:51;10.90;;;3.03;;
73266;SDS011;61495;53.400;7.608;2023-02-11T16:54:20;12.07;;;3.33;;
73266;SDS011;61495;53.400;7.608;2023-02-11T16:56:46;17.00;;;3.28;;
73266;SDS011;61495;53.400;7.608;2023-02-11T16:59:11;8.75;;;2.58;;
73266;SDS011;61495;53.400;7.608;2023-02-11T17:01:37;14.23;;;3.33;;
73266;SDS011;61495;53.400;7.608;2023-02-11T17:04:04;10.13;;;3.03;;
73266;SDS011;61495;53.400;7.608;2023-02-11T17:06:32;13.77;;;3.53;;
73266;SDS011;61495;53.400;7.608;2023-02-11T17:08:58;13.00;;;2.35;;
73266;SDS011;61495;53.400;7.608;2023-02-11T17:11:23;10.05;;;2.72;;
73266;SDS011;61495;53.400;7.608;2023-02-11T17:13:49;10.13;;;3.50;;
73266;SDS011;61495;53.400;7.608;2023-02-11T17:16:15;8.52;;;2.53;;
73266;SDS011;61495;53.400;7.608;2023-02-11T17:18:43;12.60;;;3.00;;
73266;SDS011;61495;53.400;7.608;2023-02-11T17:21:09;8.55;;;3.15;;
73266;SDS011;61495;53.400;7.608;2023-02-11T17:23:35;9.85;;;2.33;;
73266;SDS011;61495;53.400;7.608;2023-02-11T17:26:01;10.73;;;2.75;;
73266;SDS011;61495;53.400;7.608;2023-02-11T17:28:27;13.45;;;4.43;;
73266;SDS011;61495;53.400;7.608;2023-02-11T17:30:52;11.07;;;2.83;;
73266;SDS011;61495;53.400;7.608;2023-02-11T17:33:17;10.23;;;3.05;;
73266;SDS011;61495;53.400;7.608;2023-02-11T17:35:43;12.10;;;2.70;;
73266;SDS011;61495;53.400;7.608;2023-02-11T17:38:09;16.02;;;3.15;;
73266;SDS011;61495;53.400;7.608;2023-02-11T17:40:34;11.35;;;2.55;;
73266;SDS011;61495;53.400;7.608;2023-02-11T17:42:59;17.10;;;2.83;;
73266;SDS011;61495;53.400;7.608;2023-02-11T17:45:25;9.82;;;2.95;;
73266;SDS011;61495;53.400;7.608;2023-02-11T17:47:51;15.43;;;2.88;;
73266;SDS011;61495;53.400;7.608;2023-02-11T17:50:16;15.45;;;3.60;;
73266;SDS011;61495;53.400;7.608;2023-02-11T17:52:42;10.70;;;2.42;;